createdAt,value
2024-02-12T00:02:32.281Z,97997.60
2024-02-12T00:05:08.617Z,97991.60
2024-02-12T00:07:44.441Z,97998.60
2024-02-12T00:10:19.588Z,97996.40
2024-02-12T00:12:54.554Z,97999.80
2024-02-12T00:15:29.746Z,98002.60
2024-02-12T00:18:04.437Z,98003.00
2024-02-12T00:20:38.931Z,98011.40
2024-02-12T00:23:13.650Z,98007.20
2024-02-12T00:25:48.749Z,98006.60
2024-02-12T00:28:27.380Z,98006.60
2024-02-12T00:31:01.912Z,98014.00
2024-02-12T00:33:49.743Z,98016.60
2024-02-12T00:36:24.727Z,98024.20
2024-02-12T00:39:01.821Z,98029.80
2024-02-12T00:41:36.301Z,98028.00
2024-02-12T00:44:11.279Z,98032.80
2024-02-12T00:46:50.041Z,98029.00
2024-02-12T00:49:24.913Z,98029.40
2024-02-12T00:51:59.748Z,98033.00
2024-02-12T00:54:36.171Z,98026.80
2024-02-12T00:57:10.978Z,98029.20
2024-02-12T00:59:45.385Z,98031.40
2024-02-12T01:02:20.656Z,98031.00
2024-02-12T01:04:56.924Z,98030.20
2024-02-12T01:07:31.606Z,98033.20
2024-02-12T01:10:06.482Z,98039.00
2024-02-12T01:12:43.718Z,98044.00
2024-02-12T01:15:18.958Z,98045.20
2024-02-12T01:18:05.403Z,98041.80
2024-02-12T01:20:46.598Z,98049.40
2024-02-12T01:23:21.540Z,98045.00
2024-02-12T01:25:57.274Z,98046.80
2024-02-12T01:28:35.064Z,98052.20
2024-02-12T01:31:12.058Z,98050.40
2024-02-12T01:33:47.335Z,98050.40
2024-02-12T01:36:24.213Z,98045.40
2024-02-12T01:38:58.980Z,98046.60
2024-02-12T01:41:35.817Z,98052.20
2024-02-12T01:44:10.729Z,98056.00
2024-02-12T01:46:50.450Z,98061.20
2024-02-12T01:49:27.850Z,98064.00
2024-02-12T01:52:02.589Z,98058.60
2024-02-12T01:54:37.170Z,98065.60
2024-02-12T01:57:12.103Z,98060.60
2024-02-12T01:59:46.762Z,98064.80
2024-02-12T02:02:21.996Z,98074.00
2024-02-12T02:04:59.812Z,98070.00
2024-02-12T02:07:34.780Z,98069.60
2024-02-12T02:10:15.124Z,98071.60
2024-02-12T02:12:50.885Z,98069.80
2024-02-12T02:15:26.096Z,98076.20
2024-02-12T02:18:01.712Z,98077.60
2024-02-12T02:22:31.315Z,98080.00
2024-02-12T02:25:06.981Z,98083.60
2024-02-12T02:27:41.448Z,98089.40
2024-02-12T02:30:21.015Z,98092.80
2024-02-12T02:32:56.619Z,98094.80
2024-02-12T02:35:31.872Z,98090.00
2024-02-12T02:38:07.474Z,98097.60
2024-02-12T02:40:44.342Z,98101.20
2024-02-12T02:43:19.288Z,98102.40
2024-02-12T02:45:53.862Z,98108.20
2024-02-12T02:48:33.527Z,98110.40
2024-02-12T02:51:09.145Z,98104.20
2024-02-12T02:53:43.927Z,98109.80
2024-02-12T02:56:18.873Z,98111.00
2024-02-12T03:10:31.894Z,98120.20
2024-02-12T03:13:08.354Z,98131.20
2024-02-12T03:15:45.431Z,98132.20
2024-02-12T03:18:21.824Z,98133.20
2024-02-12T03:20:57.269Z,98134.20
2024-02-12T03:23:34.855Z,98138.20
2024-02-12T03:26:10.313Z,98137.20
2024-02-12T03:28:45.113Z,98140.00
2024-02-12T03:31:19.650Z,98138.60
2024-02-12T03:33:54.857Z,98136.40
2024-02-12T03:36:30.002Z,98146.20
2024-02-12T03:39:09.794Z,98146.60
2024-02-12T03:41:44.650Z,98148.80
2024-02-12T03:44:19.337Z,98150.20
2024-02-12T03:46:56.627Z,98144.80
2024-02-12T03:49:48.669Z,98151.80
2024-02-12T03:52:40.299Z,98155.20
2024-02-12T03:55:30.865Z,98157.60
2024-02-12T03:58:23.218Z,98160.40
2024-02-12T04:00:57.664Z,98166.20
2024-02-12T04:03:32.001Z,98166.80
2024-02-12T04:06:08.010Z,98168.00
2024-02-12T04:08:55.503Z,98169.00
2024-02-12T04:11:30.802Z,98165.60
2024-02-12T04:14:05.413Z,98169.00
2024-02-12T04:16:39.791Z,98172.00
2024-02-12T04:19:15.080Z,98167.20
2024-02-12T04:21:50.985Z,98170.40
2024-02-12T04:24:30.143Z,98170.40
2024-02-12T04:27:05.461Z,98170.20
2024-02-12T04:29:42.265Z,98173.40
2024-02-12T04:32:17.544Z,98174.20
2024-02-12T04:34:52.440Z,98175.20
2024-02-12T04:37:29.593Z,98177.20
2024-02-12T04:40:04.569Z,98181.40
2024-02-12T04:42:39.267Z,98182.80
2024-02-12T04:45:15.570Z,98186.80
2024-02-12T04:47:51.962Z,98186.00
2024-02-12T04:50:27.132Z,98190.00
2024-02-12T04:53:01.702Z,98186.00
2024-02-12T04:55:36.232Z,98189.40
2024-02-12T04:58:11.015Z,98188.60
2024-02-12T05:00:46.069Z,98192.20
2024-02-12T05:03:20.552Z,98198.20
2024-02-12T05:05:56.257Z,98203.00
2024-02-12T05:08:30.819Z,98202.00
2024-02-12T05:11:05.590Z,98200.00
2024-02-12T05:13:40.425Z,98206.20
2024-02-12T05:16:15.935Z,98200.80
2024-02-12T05:19:07.683Z,98205.60
2024-02-12T05:21:59.502Z,98206.00
2024-02-12T05:24:34.054Z,98208.60
2024-02-12T05:27:09.427Z,98209.60
2024-02-12T05:29:44.523Z,98214.60
2024-02-12T05:32:21.529Z,98220.20
2024-02-12T05:34:57.364Z,98224.40
2024-02-12T05:37:32.316Z,98222.80
2024-02-12T05:40:10.293Z,98229.00
2024-02-12T05:42:44.719Z,98229.60
2024-02-12T05:45:20.210Z,98236.00
2024-02-12T05:47:54.673Z,98242.20
2024-02-12T05:50:29.273Z,98244.40
2024-02-12T05:53:04.254Z,98246.00
2024-02-12T05:55:41.956Z,98249.20
2024-02-12T05:58:17.044Z,98250.80
2024-02-12T06:00:52.034Z,98253.60
2024-02-12T06:03:26.870Z,98253.20
2024-02-12T06:06:05.656Z,98257.80
2024-02-12T06:08:40.700Z,98256.80
2024-02-12T06:11:16.332Z,98263.00
2024-02-12T06:13:51.030Z,98263.60
2024-02-12T06:16:26.103Z,98264.60
2024-02-12T06:19:05.510Z,98269.60
2024-02-12T06:21:40.634Z,98266.20
2024-02-12T06:24:16.069Z,98267.40
2024-02-12T06:26:51.379Z,98281.00
2024-02-12T06:29:27.060Z,98278.40
2024-02-12T06:32:01.684Z,98277.20
2024-02-12T06:34:36.065Z,98278.20
2024-02-12T06:37:10.627Z,98294.20
2024-02-12T06:39:46.802Z,98291.40
2024-02-12T06:42:21.652Z,98297.40
2024-02-12T06:44:56.308Z,98299.60
2024-02-12T06:47:31.985Z,98301.60
2024-02-12T06:50:08.285Z,98305.20
2024-02-12T06:52:43.816Z,98309.20
2024-02-12T06:55:22.020Z,98310.80
2024-02-12T06:57:59.150Z,98310.00
2024-02-12T07:00:37.899Z,98321.00
2024-02-12T07:03:14.115Z,98325.20
2024-02-12T07:06:15.764Z,98328.80
2024-02-12T07:08:52.902Z,98328.20
2024-02-12T07:11:31.113Z,98338.20
2024-02-12T07:14:49.494Z,98337.80
2024-02-12T07:17:35.231Z,98341.40
2024-02-12T07:20:30.330Z,98347.00
2024-02-12T07:23:42.339Z,98346.40
2024-02-12T07:26:31.885Z,98346.20
2024-02-12T07:29:11.655Z,98342.40
2024-02-12T07:32:07.056Z,98346.60
2024-02-12T07:34:51.564Z,98351.40
2024-02-12T07:37:43.150Z,98356.60
2024-02-12T07:40:20.473Z,98359.40
2024-02-12T07:42:56.128Z,98363.60
2024-02-12T07:45:48.132Z,98367.80
2024-02-12T07:48:23.222Z,98370.40
2024-02-12T07:50:58.992Z,98367.20
2024-02-12T07:53:33.568Z,98374.20
2024-02-12T07:56:09.856Z,98369.60
2024-02-12T07:58:44.956Z,98375.60
2024-02-12T08:01:26.448Z,98378.20
2024-02-12T08:04:01.592Z,98383.60
2024-02-12T08:06:37.475Z,98389.40
2024-02-12T08:09:12.441Z,98386.00
2024-02-12T08:11:47.763Z,98391.60
2024-02-12T08:14:23.401Z,98398.00
2024-02-12T08:16:58.742Z,98403.20
2024-02-12T08:19:33.434Z,98400.60
2024-02-12T08:22:08.743Z,98404.80
2024-02-12T08:24:44.078Z,98403.20
2024-02-12T08:27:20.187Z,98407.20
2024-02-12T08:29:55.341Z,98408.60
2024-02-12T08:32:30.828Z,98409.20
2024-02-12T08:35:08.305Z,98410.40
2024-02-12T08:37:43.109Z,98415.80
2024-02-12T08:40:19.196Z,98418.60
2024-02-12T08:42:53.454Z,98429.80
2024-02-12T08:45:30.310Z,98430.20
2024-02-12T08:48:44.743Z,98436.40
2024-02-12T08:51:47.617Z,98435.60
2024-02-12T09:06:02.579Z,98457.60
2024-02-12T09:08:38.359Z,98460.20
2024-02-12T09:11:16.929Z,98455.60
2024-02-12T09:14:11.672Z,98461.40
2024-02-12T09:16:50.688Z,98465.80
2024-02-12T09:19:25.258Z,98460.60
2024-02-12T09:21:59.687Z,98475.60
2024-02-12T09:24:34.751Z,98473.20
2024-02-12T09:27:09.891Z,98469.20
2024-02-12T09:29:48.960Z,98470.40
2024-02-12T09:40:55.787Z,98493.00
2024-02-12T09:43:56.671Z,98497.20
2024-02-12T09:50:11.088Z,98504.20
2024-02-12T09:53:25.948Z,98504.80
2024-02-12T10:00:13.890Z,98510.40
2024-02-12T10:07:07.725Z,98521.20
2024-02-12T11:15:37.788Z,98543.40
2024-02-12T11:23:00.640Z,98545.60
2024-02-12T11:26:26.702Z,98550.20
2024-02-12T11:30:15.821Z,98549.00
2024-02-12T11:33:52.460Z,98557.80
2024-02-12T11:38:08.851Z,98551.20
2024-02-12T11:49:34.714Z,98557.00
2024-02-12T12:11:23.669Z,98576.80
2024-02-12T12:14:06.267Z,98582.00
2024-02-12T12:16:38.321Z,98579.20
2024-02-12T12:19:14.040Z,98583.20
2024-02-12T12:21:55.686Z,98577.60
2024-02-12T12:24:29.252Z,98584.00
2024-02-12T12:27:05.873Z,98586.60
2024-02-12T12:29:54.776Z,98594.40
2024-02-12T12:32:31.712Z,98598.00
2024-02-12T12:35:08.177Z,98593.60
2024-02-12T12:37:42.920Z,98596.80
2024-02-12T12:40:22.166Z,98590.20
2024-02-12T12:42:58.367Z,98597.40
2024-02-12T12:45:32.212Z,98596.20
2024-02-12T12:48:08.243Z,98596.20
2024-02-12T12:50:57.995Z,98596.00
2024-02-12T12:53:38.810Z,98596.60
2024-02-12T12:56:10.461Z,98598.60
2024-02-12T12:58:41.790Z,98606.80
2024-02-12T13:01:14.966Z,98596.00
2024-02-12T13:03:47.584Z,98604.60
2024-02-12T13:06:19.918Z,98616.80
2024-02-12T13:08:55.466Z,98606.00
2024-02-12T13:11:28.388Z,98607.80
2024-02-12T13:13:59.644Z,98618.60
2024-02-12T13:16:33.499Z,98624.20
2024-02-12T13:19:05.827Z,98626.20
2024-02-12T13:21:39.480Z,98624.80
2024-02-12T13:24:11.755Z,98635.60
2024-02-12T13:26:44.438Z,98634.00
2024-02-12T13:29:24.468Z,98636.80
2024-02-12T13:31:57.067Z,98628.60
2024-02-12T13:34:29.382Z,98637.40
2024-02-12T13:37:01.325Z,98643.40
2024-02-12T13:39:32.805Z,98636.60
2024-02-12T13:42:05.524Z,98645.20
2024-02-12T13:44:38.504Z,98645.80
2024-02-12T13:47:12.661Z,98655.00
2024-02-12T13:49:45.004Z,98652.60
2024-02-12T13:52:17.081Z,98661.80
2024-02-12T13:54:49.056Z,98662.80
2024-02-12T13:57:19.838Z,98665.80
2024-02-12T13:59:55.669Z,98671.00
2024-02-12T14:02:48.276Z,98675.00
2024-02-12T14:05:21.692Z,98673.80
2024-02-12T14:07:57.170Z,98677.40
2024-02-12T14:10:28.576Z,98673.20
2024-02-12T14:13:02.662Z,98679.80
2024-02-12T14:16:03.865Z,98680.40
2024-02-12T14:18:28.307Z,98684.60
2024-02-12T14:21:00.553Z,98687.20
2024-02-12T14:23:34.085Z,98685.80
2024-02-12T14:26:12.710Z,98687.80
2024-02-12T14:28:48.105Z,98699.80
2024-02-12T14:31:25.411Z,98701.60
2024-02-12T14:34:00.156Z,98698.40
2024-02-12T14:36:32.982Z,98708.20
2024-02-12T14:39:05.989Z,98702.80
2024-02-12T14:41:44.295Z,98716.20
2024-02-12T14:44:16.716Z,98720.80
2024-02-12T14:46:51.403Z,98724.20
2024-02-12T14:49:35.589Z,98729.40
2024-02-12T14:52:21.995Z,98735.80
2024-02-12T14:54:57.723Z,98741.40
2024-02-12T14:57:38.335Z,98744.40
2024-02-12T15:00:16.202Z,98757.60
2024-02-12T15:02:51.807Z,98758.80
2024-02-12T15:05:28.752Z,98759.00
2024-02-12T15:08:02.776Z,98761.80
2024-02-12T15:10:37.446Z,98764.60
2024-02-12T15:13:13.894Z,98769.20
2024-02-12T15:15:47.646Z,98769.40
2024-02-12T15:18:19.745Z,98780.80
2024-02-12T15:20:51.085Z,98778.40
2024-02-12T15:23:28.780Z,98786.80
2024-02-12T15:26:03.901Z,98787.40
2024-02-12T15:28:39.200Z,98791.00
2024-02-12T15:31:13.790Z,98797.40
2024-02-12T15:33:51.837Z,98799.40
2024-02-12T15:36:47.910Z,98801.60
2024-02-12T15:39:31.966Z,98802.00
2024-02-12T15:42:21.435Z,98806.40
2024-02-12T15:45:27.019Z,98807.00
2024-02-12T15:48:18.685Z,98807.00
2024-02-12T15:51:03.254Z,98810.60
2024-02-12T15:53:52.946Z,98813.40
2024-02-12T15:56:30.969Z,98818.20
2024-02-12T15:59:06.525Z,98825.20
2024-02-12T16:01:42.662Z,98830.80
2024-02-12T16:04:50.528Z,98833.60
2024-02-12T16:19:05.008Z,98852.20
2024-02-12T16:21:51.123Z,98857.40
2024-02-12T16:24:35.865Z,98864.20
2024-02-12T16:27:14.767Z,98868.80
2024-02-12T16:30:05.297Z,98874.00
2024-02-12T16:33:00.717Z,98881.80
2024-02-12T16:35:47.902Z,98890.00
2024-02-12T16:38:25.674Z,98893.40
2024-02-12T16:41:01.238Z,98893.60
2024-02-12T16:43:37.388Z,98898.20
2024-02-12T16:46:13.217Z,98901.80
2024-02-12T16:48:48.356Z,98906.20
2024-02-12T16:51:23.308Z,98915.20
2024-02-12T16:53:58.366Z,98924.00
2024-02-12T16:56:34.588Z,98924.00
2024-02-12T16:59:09.415Z,98932.40
2024-02-12T17:01:46.270Z,98928.80
2024-02-12T17:04:21.326Z,98930.80
2024-02-12T17:06:57.343Z,98935.20
2024-02-12T17:09:32.191Z,98934.00
2024-02-12T17:12:14.721Z,98938.20
2024-02-12T17:14:51.010Z,98941.00
2024-02-12T17:17:33.777Z,98946.40
2024-02-12T17:20:13.168Z,98955.00
2024-02-12T17:22:48.496Z,98958.60
2024-02-12T17:25:23.887Z,98964.40
2024-02-12T17:27:58.666Z,98970.60
2024-02-12T17:30:33.993Z,98969.60
2024-02-12T17:33:11.050Z,98968.80
2024-02-12T17:35:46.490Z,98973.40
2024-02-12T17:38:21.774Z,98975.60
2024-02-12T17:40:59.226Z,98980.40
2024-02-12T17:43:35.794Z,98980.40
2024-02-12T17:46:18.594Z,98989.40
2024-02-12T17:48:54.173Z,98990.00
2024-02-12T17:51:29.832Z,98994.00
2024-02-12T17:54:09.428Z,98998.60
2024-02-12T17:56:50.321Z,99003.40
2024-02-12T17:59:26.408Z,99005.20
2024-02-12T18:02:03.725Z,99010.60
2024-02-12T18:04:41.859Z,99015.60
2024-02-12T18:07:17.257Z,99012.80
2024-02-12T18:09:53.157Z,99022.00
2024-02-12T18:12:30.442Z,99018.80
2024-02-12T18:15:06.985Z,99026.20
2024-02-12T18:17:46.290Z,99033.20
2024-02-12T18:20:25.465Z,99032.80
2024-02-12T18:23:02.901Z,99041.40
2024-02-12T18:25:37.998Z,99043.80
2024-02-12T18:28:13.223Z,99044.00
2024-02-12T18:30:50.262Z,99039.80
2024-02-12T18:33:26.969Z,99045.20
2024-02-12T18:36:05.866Z,99052.20
2024-02-12T18:38:46.096Z,99056.00
2024-02-12T18:41:24.847Z,99057.00
2024-02-12T18:44:03.268Z,99056.60
2024-02-12T18:46:40.129Z,99057.40
2024-02-12T18:49:21.094Z,99059.40
2024-02-12T18:52:07.312Z,99059.80
2024-02-12T18:54:47.499Z,99065.40
2024-02-12T18:57:37.048Z,99072.20
2024-02-12T19:00:27.511Z,99075.60
2024-02-12T19:03:12.152Z,99076.20
2024-02-12T19:05:48.914Z,99087.20
2024-02-12T19:08:24.733Z,99084.80
2024-02-12T19:10:59.457Z,99090.00
2024-02-12T19:13:36.093Z,99098.60
2024-02-12T19:16:13.367Z,99100.00
2024-02-12T19:18:56.458Z,99101.00
2024-02-12T19:33:12.410Z,99125.40
2024-02-12T19:35:43.209Z,99138.40
2024-02-12T19:38:33.301Z,99143.80
2024-02-12T19:41:13.130Z,99142.80
2024-02-12T19:43:57.737Z,99152.40
2024-02-12T19:46:29.165Z,99156.40
2024-02-12T19:49:01.495Z,99160.60
2024-02-12T19:51:32.569Z,99164.20
2024-02-12T19:54:04.773Z,99174.40
2024-02-12T19:56:37.738Z,99172.20
2024-02-12T19:59:10.120Z,99176.80
2024-02-12T20:01:42.888Z,99181.00
2024-02-12T20:04:14.485Z,99179.60
2024-02-12T20:06:45.670Z,99184.60
2024-02-12T20:09:17.932Z,99186.00
2024-02-12T20:11:52.252Z,99191.20
2024-02-12T20:14:24.407Z,99195.40
2024-02-12T20:16:54.975Z,99200.20
2024-02-12T20:19:27.971Z,99195.20
2024-02-12T20:35:24.102Z,99214.60
2024-02-12T20:37:57.641Z,99217.80
2024-02-12T20:40:39.325Z,99229.80
2024-02-12T20:43:10.072Z,99228.00
2024-02-12T20:46:06.827Z,99226.40
2024-02-12T20:48:40.001Z,99232.00
2024-02-12T20:51:15.020Z,99237.80
2024-02-12T20:53:47.156Z,99244.20
2024-02-12T20:56:27.093Z,99244.80
2024-02-12T20:59:13.238Z,99244.80
2024-02-12T21:01:50.588Z,99245.00
2024-02-12T21:04:29.420Z,99247.60
2024-02-12T21:07:06.528Z,99251.80
2024-02-12T21:09:45.645Z,99255.00
2024-02-12T21:12:35.693Z,99252.00
2024-02-12T21:15:13.769Z,99257.60
2024-02-12T21:17:53.563Z,99263.20
2024-02-12T21:20:26.667Z,99270.60
2024-02-12T21:22:59.203Z,99272.80
2024-02-12T21:25:42.829Z,99271.60
2024-02-12T21:28:15.985Z,99275.20
2024-02-12T21:30:47.330Z,99281.60
2024-02-12T21:33:21.669Z,99278.80
2024-02-12T21:35:53.292Z,99286.20
2024-02-12T21:38:29.961Z,99294.60
2024-02-12T21:41:17.365Z,99299.20
2024-02-12T21:43:49.533Z,99296.20
2024-02-12T21:46:24.601Z,99301.60
2024-02-12T21:48:58.188Z,99312.20
2024-02-12T21:51:32.151Z,99314.80
2024-02-12T21:54:04.212Z,99323.20
2024-02-12T21:56:36.702Z,99323.20
2024-02-12T21:59:07.976Z,99330.00
2024-02-12T22:01:44.372Z,99328.80
2024-02-12T22:04:16.437Z,99340.20
2024-02-12T22:06:48.205Z,99348.20
2024-02-12T22:09:22.788Z,99347.40
2024-02-12T22:11:57.211Z,99353.00
2024-02-12T22:14:29.990Z,99354.40
2024-02-12T22:17:19.063Z,99356.40
2024-02-12T22:19:54.678Z,99354.40
2024-02-12T22:22:27.611Z,99360.40
2024-02-12T22:25:07.535Z,99369.40
2024-02-12T22:27:44.000Z,99369.20
2024-02-12T22:30:22.224Z,99364.40
2024-02-12T22:32:56.992Z,99370.20
2024-02-12T22:35:31.467Z,99377.40
2024-02-12T22:38:05.018Z,99377.60
2024-02-12T22:40:38.988Z,99381.80
2024-02-12T22:43:13.883Z,99381.20
2024-02-12T22:45:53.790Z,99386.00
2024-02-12T22:48:48.783Z,99398.40
2024-02-12T22:52:18.512Z,99393.40
2024-02-12T22:58:38.438Z,99409.60
2024-02-12T23:01:46.257Z,99409.40
2024-02-12T23:04:37.735Z,99410.40
2024-02-12T23:07:38.548Z,99416.20
2024-02-12T23:10:41.857Z,99422.20
2024-02-12T23:14:12.088Z,99424.20
2024-02-12T23:35:00.856Z,99448.20
2024-02-12T23:38:06.252Z,99448.20
2024-02-12T23:40:56.489Z,99448.20
2024-02-12T23:43:45.046Z,99448.80
2024-02-12T23:46:38.468Z,99457.80
2024-02-12T23:49:31.385Z,99461.00
2024-02-12T23:52:36.572Z,99460.00
2024-02-12T23:55:18.909Z,99459.20
2024-02-12T23:58:14.435Z,99463.80
